Time;durP1;ratioP1;P1;durP2;ratioP2;P2;SDS_P1;SDS_P2;PMS_P1;PMS_P2;Temp;Humidity;BMP_temperature;BMP_pressure;BME280_temperature;BME280_humidity;BME280_pressure;Samples;Min_cycle;Max_cycle;Signal;HPM_P1;HPM_P2
2022/10/09 00:01:36;;;;;;;0.95;0.70;;;11.10;69.50;;;;;;5009357;28;20117;-69
2022/10/09 00:04:04;;;;;;;3.10;1.08;;;11.00;69.30;;;;;;4992323;28;20026;-69
2022/10/09 00:06:33;;;;;;;1.33;0.85;;;11.00;69.40;;;;;;5008262;28;20041;-70
2022/10/09 00:09:03;;;;;;;3.03;0.98;;;11.00;69.50;;;;;;5008037;28;20026;-70
2022/10/09 00:11:30;;;;;;;3.75;1.00;;;11.00;69.80;;;;;;5011015;28;20480;-70
2022/10/09 00:13:56;;;;;;;1.42;0.85;;;11.00;69.90;;;;;;5010906;28;20136;-70
2022/10/09 00:16:23;;;;;;;1.35;0.90;;;10.90;69.80;;;;;;5015220;28;20128;-70
2022/10/09 00:18:49;;;;;;;2.80;0.90;;;10.90;69.80;;;;;;5009083;28;20030;-70
2022/10/09 00:21:29;;;;;;;1.10;0.93;;;10.90;69.80;;;;;;5013988;28;20546;-70
2022/10/09 00:23:57;;;;;;;3.40;1.40;;;10.90;69.90;;;;;;5003315;28;20022;-70
2022/10/09 00:26:23;;;;;;;0.93;0.80;;;10.80;70.00;;;;;;5008382;28;20404;-70
2022/10/09 00:28:49;;;;;;;3.40;1.20;;;10.80;70.10;;;;;;5017655;28;20029;-70
2022/10/09 00:31:15;;;;;;;2.67;1.50;;;10.70;69.90;;;;;;4996232;28;20099;-70
2022/10/09 00:33:41;;;;;;;10.63;2.40;;;10.70;70.00;;;;;;5023435;28;20032;-71
2022/10/09 00:36:16;;;;;;;1.02;0.90;;;10.70;70.30;;;;;;4998323;28;20029;-70
2022/10/09 00:38:42;;;;;;;1.95;1.33;;;10.70;70.20;;;;;;5023845;28;20025;-70
2022/10/09 00:41:15;;;;;;;1.05;0.90;;;10.60;70.10;;;;;;5016833;28;20040;-70
2022/10/09 00:43:49;;;;;;;;;;;10.70;70.10;;;;;;5009689;28;20462;-69
2022/10/09 00:46:24;;;;;;;2.78;1.33;;;10.60;70.20;;;;;;5008382;28;20276;-69
2022/10/09 00:48:59;;;;;;;1.52;1.00;;;10.50;70.30;;;;;;5007798;28;20129;-69
2022/10/09 00:51:25;;;;;;;2.05;1.35;;;10.50;70.30;;;;;;4996343;28;20038;-69
2022/10/09 00:53:51;;;;;;;3.95;1.25;;;10.50;70.20;;;;;;4990973;28;20029;-69
2022/10/09 00:56:17;;;;;;;2.78;1.63;;;10.50;70.30;;;;;;5009173;28;20030;-69
2022/10/09 00:58:43;;;;;;;0.85;0.80;;;10.40;70.40;;;;;;5006551;28;20034;-69
2022/10/09 01:01:08;;;;;;;1.75;0.90;;;10.40;70.30;;;;;;5008548;28;20096;-68
2022/10/09 01:03:34;;;;;;;2.65;1.17;;;10.40;70.30;;;;;;5009648;28;20393;-69
2022/10/09 01:06:15;;;;;;;2.67;1.52;;;10.40;70.60;;;;;;4977395;28;20572;-69
2022/10/09 01:08:54;;;;;;;3.42;1.38;;;10.40;70.60;;;;;;5011237;28;20065;-70
2022/10/09 01:11:35;;;;;;;2.30;1.55;;;10.40;70.80;;;;;;5021285;28;20136;-70
2022/10/09 01:14:09;;;;;;;1.95;1.33;;;10.40;70.90;;;;;;5000578;28;20065;-70
2022/10/09 01:17:10;;;;;;;6.93;1.83;;;10.40;71.10;;;;;;4994811;28;20404;-69
2022/10/09 01:20:13;;;;;;;3.65;1.10;;;10.30;71.10;;;;;;4976570;28;20128;-70
2022/10/09 01:22:53;;;;;;;2.20;1.35;;;10.30;70.90;;;;;;5018274;28;20024;-70
2022/10/09 01:25:33;;;;;;;21.20;1.33;;;10.20;71.20;;;;;;5006272;28;20042;-70
2022/10/09 01:28:01;;;;;;;5.65;1.25;;;10.30;71.10;;;;;;5010259;28;20026;-70
2022/10/09 01:30:28;;;;;;;2.45;1.35;;;10.20;71.10;;;;;;5009265;28;20030;-70
2022/10/09 01:32:54;;;;;;;1.40;1.15;;;10.20;71.20;;;;;;4992495;28;20034;-70
2022/10/09 01:35:21;;;;;;;1.20;0.80;;;10.20;71.20;;;;;;5010990;28;20072;-69
2022/10/09 01:37:49;;;;;;;2.30;1.42;;;10.20;71.10;;;;;;5008156;28;20121;-68
2022/10/09 01:40:16;;;;;;;1.63;0.90;;;10.20;71.20;;;;;;5000117;28;20032;-68
2022/10/09 01:42:42;;;;;;;1.42;1.33;;;10.20;71.20;;;;;;5007838;28;20022;-68
2022/10/09 01:45:09;;;;;;;1.20;1.08;;;10.10;71.10;;;;;;5003604;28;20037;-68
2022/10/09 01:47:35;;;;;;;0.82;0.77;;;10.10;71.30;;;;;;5007036;28;20026;-68
2022/10/09 01:50:28;;;;;;;3.80;1.60;;;10.10;71.20;;;;;;5007224;28;20448;-68
2022/10/09 01:53:04;;;;;;;2.40;1.70;;;10.10;71.10;;;;;;5011505;28;20041;-68
2022/10/09 01:55:58;;;;;;;4.80;1.38;;;10.00;71.30;;;;;;5011746;28;20120;-68
2022/10/09 01:58:49;;;;;;;1.92;1.30;;;10.00;71.30;;;;;;5010028;28;20112;-68
2022/10/09 02:01:30;;;;;;;2.25;1.17;;;10.00;71.50;;;;;;5005822;28;20041;-68
2022/10/09 02:03:59;;;;;;;2.90;1.35;;;9.90;71.60;;;;;;5011892;28;20027;-68
2022/10/09 02:06:27;;;;;;;3.85;1.50;;;9.90;71.70;;;;;;5010666;28;20109;-68
2022/10/09 02:08:54;;;;;;;3.17;1.65;;;9.90;71.70;;;;;;5006952;28;20033;-68
2022/10/09 02:11:20;;;;;;;2.67;1.63;;;9.90;71.80;;;;;;5008159;28;20034;-68
2022/10/09 02:13:48;;;;;;;1.52;1.42;;;9.90;71.60;;;;;;5005486;28;20058;-68
2022/10/09 02:16:38;;;;;;;1.38;1.08;;;9.90;71.50;;;;;;5016649;28;20117;-69
2022/10/09 02:19:11;;;;;;;2.33;1.90;;;9.90;71.50;;;;;;4994307;28;20048;-70
2022/10/09 02:21:38;;;;;;;;;;;9.90;71.60;;;;;;5017874;28;20021;-70
2022/10/09 02:24:07;;;;;;;1.85;1.38;;;9.80;71.70;;;;;;4998271;28;20330;-69
2022/10/09 02:26:33;;;;;;;1.83;1.20;;;9.80;71.80;;;;;;5011109;28;20026;-69
2022/10/09 02:28:59;;;;;;;1.98;1.40;;;9.70;71.60;;;;;;5012236;28;20113;-69
2022/10/09 02:31:28;;;;;;;1.60;1.30;;;9.70;71.60;;;;;;5008902;28;20045;-69
2022/10/09 02:33:59;;;;;;;1.63;1.27;;;9.70;71.80;;;;;;4990216;28;20080;-69
2022/10/09 02:36:26;;;;;;;3.28;1.55;;;9.70;71.80;;;;;;5009733;28;20034;-69
2022/10/09 02:38:53;;;;;;;2.38;1.25;;;9.70;71.80;;;;;;5018232;28;20027;-69
2022/10/09 02:41:19;;;;;;;1.67;1.05;;;9.70;71.90;;;;;;5016285;28;20060;-71
2022/10/09 02:43:45;;;;;;;1.83;1.17;;;9.70;71.80;;;;;;5013550;28;20030;-69
2022/10/09 02:46:11;;;;;;;1.95;1.35;;;9.60;71.70;;;;;;5005903;28;20048;-69
2022/10/09 02:48:36;;;;;;;3.60;1.23;;;9.60;71.80;;;;;;5009969;28;20034;-69
2022/10/09 02:51:02;;;;;;;2.95;1.20;;;9.60;71.80;;;;;;5007383;28;20199;-69
2022/10/09 02:53:28;;;;;;;7.15;1.70;;;9.60;71.70;;;;;;5012186;28;20034;-71
2022/10/09 02:55:54;;;;;;;1.92;1.02;;;9.60;71.70;;;;;;5013322;28;20132;-71
2022/10/09 02:58:20;;;;;;;1.23;1.00;;;9.60;71.70;;;;;;5011442;28;20536;-69
2022/10/09 03:00:51;;;;;;;0.82;0.73;;;9.60;71.70;;;;;;5010712;28;20481;-69
2022/10/09 03:03:17;;;;;;;1.10;1.00;;;9.50;72.30;;;;;;5009027;28;20029;-69
2022/10/09 03:05:43;;;;;;;2.33;1.38;;;9.50;71.80;;;;;;5010341;28;20033;-69
2022/10/09 03:08:09;;;;;;;3.83;1.52;;;9.50;72.10;;;;;;5012080;28;20521;-71
2022/10/09 03:10:38;;;;;;;1.10;1.00;;;9.50;72.20;;;;;;5022990;28;20033;-71
2022/10/09 03:13:04;;;;;;;1.48;1.38;;;9.50;72.10;;;;;;5019734;28;20034;-72
2022/10/09 03:15:34;;;;;;;2.55;1.55;;;9.50;72.20;;;;;;4993084;28;20050;-69
2022/10/09 03:18:00;;;;;;;3.40;1.65;;;9.40;72.30;;;;;;5009185;28;20050;-69
2022/10/09 03:20:28;;;;;;;2.00;1.48;;;9.40;72.20;;;;;;5010163;28;20379;-69
2022/10/09 03:22:55;;;;;;;1.58;1.20;;;9.40;72.20;;;;;;5010321;28;20025;-71
2022/10/09 03:25:21;;;;;;;1.67;1.38;;;9.40;72.20;;;;;;5012400;28;20044;-71
2022/10/09 03:27:47;;;;;;;1.35;1.10;;;9.30;72.20;;;;;;5017243;28;20018;-69
2022/10/09 03:30:13;;;;;;;0.82;0.80;;;9.30;72.30;;;;;;5010836;28;20026;-69
2022/10/09 03:32:38;;;;;;;9.75;1.10;;;9.30;72.30;;;;;;5008503;28;20026;-69
2022/10/09 03:35:04;;;;;;;1.45;1.00;;;9.30;72.30;;;;;;5011591;28;20108;-72
2022/10/09 03:37:30;;;;;;;2.53;1.65;;;9.30;72.20;;;;;;5011719;28;20040;-71
2022/10/09 03:39:57;;;;;;;1.55;1.10;;;9.20;72.20;;;;;;5015513;28;20029;-70
2022/10/09 03:42:23;;;;;;;5.32;1.60;;;9.20;72.20;;;;;;5009235;28;20036;-70
2022/10/09 03:44:49;;;;;;;3.30;1.80;;;9.20;72.30;;;;;;5010141;28;20049;-69
2022/10/09 03:47:15;;;;;;;2.08;1.63;;;9.20;72.30;;;;;;5009723;28;20037;-69
2022/10/09 03:49:41;;;;;;;2.08;1.27;;;9.10;72.30;;;;;;5008992;28;20036;-69
2022/10/09 03:52:07;;;;;;;5.32;1.20;;;9.10;72.40;;;;;;5009011;28;20037;-69
2022/10/09 03:54:33;;;;;;;1.40;1.27;;;9.10;72.30;;;;;;4991906;28;20061;-69
2022/10/09 03:56:58;;;;;;;5.53;1.90;;;9.10;72.30;;;;;;5009026;28;20068;-69
2022/10/09 03:59:24;;;;;;;4.50;1.52;;;9.10;72.40;;;;;;4992982;28;20500;-72
2022/10/09 04:01:50;;;;;;;2.35;1.73;;;9.10;72.40;;;;;;4990517;28;20094;-71
2022/10/09 04:04:16;;;;;;;4.35;2.10;;;9.10;72.50;;;;;;5013513;28;20018;-71
2022/10/09 04:06:42;;;;;;;3.85;1.73;;;9.00;72.60;;;;;;5009337;28;20022;-71
2022/10/09 04:09:08;;;;;;;4.32;1.55;;;9.00;72.60;;;;;;5003665;28;20029;-71
2022/10/09 04:11:34;;;;;;;1.83;1.10;;;9.00;72.60;;;;;;5001982;28;20034;-70
2022/10/09 04:14:00;;;;;;;1.52;1.42;;;9.00;72.50;;;;;;5004941;28;20041;-70
2022/10/09 04:16:25;;;;;;;2.58;1.55;;;9.00;72.60;;;;;;5010497;28;20117;-71
2022/10/09 04:18:51;;;;;;;1.00;0.90;;;9.00;72.80;;;;;;5001670;28;20505;-71
2022/10/09 04:21:17;;;;;;;2.30;1.55;;;9.00;72.70;;;;;;5002700;28;20030;-71
2022/10/09 04:23:43;;;;;;;2.83;1.75;;;9.00;72.60;;;;;;5005314;28;20466;-71
2022/10/09 04:26:10;;;;;;;2.67;1.65;;;9.00;72.70;;;;;;5008162;28;20033;-71
2022/10/09 04:28:36;;;;;;;1.35;1.20;;;8.90;72.70;;;;;;5006376;28;20477;-71
2022/10/09 04:31:03;;;;;;;2.67;1.70;;;9.00;73.10;;;;;;5009291;28;20037;-70
2022/10/09 04:33:29;;;;;;;1.45;1.17;;;8.90;72.80;;;;;;4990217;28;20026;-70
2022/10/09 04:35:55;;;;;;;1.60;1.30;;;8.90;72.80;;;;;;5008344;28;20032;-69
2022/10/09 04:38:22;;;;;;;1.48;1.15;;;8.90;72.80;;;;;;5007020;28;20065;-69
2022/10/09 04:40:58;;;;;;;1.35;1.20;;;8.90;72.80;;;;;;5008468;28;20028;-69
2022/10/09 04:43:25;;;;;;;3.38;1.83;;;8.80;72.70;;;;;;5008661;28;20037;-69
2022/10/09 04:45:51;;;;;;;1.83;1.73;;;8.80;72.90;;;;;;5005170;28;20022;-69
2022/10/09 04:48:16;;;;;;;1.20;1.10;;;8.80;73.00;;;;;;5001321;28;20118;-69
2022/10/09 04:50:42;;;;;;;1.40;1.00;;;8.70;73.00;;;;;;5004976;28;20491;-69
2022/10/09 04:53:08;;;;;;;1.85;1.13;;;8.70;72.90;;;;;;4989211;28;20551;-69
2022/10/09 04:55:38;;;;;;;1.40;1.30;;;8.70;72.90;;;;;;5009310;28;20057;-72
2022/10/09 04:58:04;;;;;;;2.58;1.38;;;8.70;73.00;;;;;;4998325;28;20124;-69
2022/10/09 05:00:30;;;;;;;1.25;1.13;;;8.70;73.10;;;;;;5006908;28;20129;-69
2022/10/09 05:02:56;;;;;;;2.72;1.23;;;8.70;73.10;;;;;;5005773;28;20033;-69
2022/10/09 05:05:21;;;;;;;2.33;1.52;;;8.70;73.10;;;;;;5006593;28;20160;-69
2022/10/09 05:07:47;;;;;;;2.33;1.33;;;8.60;73.00;;;;;;5004005;28;20035;-69
2022/10/09 05:10:13;;;;;;;2.45;1.50;;;8.60;72.90;;;;;;5001018;28;20034;-69
2022/10/09 05:12:39;;;;;;;5.57;1.08;;;8.60;72.90;;;;;;4991828;28;20041;-69
2022/10/09 05:15:05;;;;;;;7.68;1.42;;;8.60;73.50;;;;;;4991344;28;20031;-70
2022/10/09 05:17:30;;;;;;;2.00;1.42;;;8.60;72.90;;;;;;4988202;28;20061;-70
2022/10/09 05:19:56;;;;;;;2.53;1.40;;;8.60;73.00;;;;;;4991864;28;20038;-69
2022/10/09 05:22:22;;;;;;;1.42;0.90;;;8.50;72.90;;;;;;4989319;28;20037;-69
2022/10/09 05:24:47;;;;;;;5.70;1.48;;;8.50;72.90;;;;;;4990872;28;20121;-69
2022/10/09 05:27:13;;;;;;;1.48;1.10;;;8.50;72.90;;;;;;4995631;28;20030;-70
2022/10/09 05:29:39;;;;;;;2.60;1.80;;;8.50;73.00;;;;;;5010865;28;20030;-70
2022/10/09 05:32:04;;;;;;;1.40;1.10;;;8.50;73.00;;;;;;5010720;28;20293;-70
2022/10/09 05:34:30;;;;;;;2.70;1.70;;;8.50;73.10;;;;;;5009523;28;20037;-71
2022/10/09 05:36:56;;;;;;;2.80;1.48;;;8.50;73.10;;;;;;5009670;28;20033;-69
2022/10/09 05:39:21;;;;;;;2.30;1.30;;;8.40;73.10;;;;;;4974461;28;20027;-69
2022/10/09 05:41:47;;;;;;;1.48;1.30;;;8.40;73.20;;;;;;5007935;28;20649;-70
2022/10/09 05:44:12;;;;;;;1.42;1.30;;;8.40;73.20;;;;;;5011384;28;20030;-69
2022/10/09 05:46:38;;;;;;;4.22;1.70;;;8.40;73.20;;;;;;4995356;28;20388;-69
2022/10/09 05:49:05;;;;;;;4.88;2.15;;;8.30;73.30;;;;;;5011115;28;20481;-69
2022/10/09 05:51:33;;;;;;;3.75;1.73;;;8.30;73.30;;;;;;5010968;28;20045;-70
2022/10/09 05:54:00;;;;;;;2.30;1.60;;;8.30;73.40;;;;;;5008166;28;20041;-71
2022/10/09 05:56:35;;;;;;;1.55;1.10;;;8.30;73.30;;;;;;5011129;28;20479;-70
2022/10/09 05:59:08;;;;;;;1.52;1.23;;;8.30;73.20;;;;;;5009015;28;20125;-70
2022/10/09 06:01:36;;;;;;;2.55;1.77;;;8.30;73.10;;;;;;5008419;28;20741;-70
2022/10/09 06:04:04;;;;;;;1.83;1.50;;;8.30;73.20;;;;;;5010564;28;20055;-70
2022/10/09 06:06:32;;;;;;;1.60;1.13;;;8.30;73.40;;;;;;5011013;28;20095;-70
2022/10/09 06:08:58;;;;;;;2.72;1.55;;;8.30;73.60;;;;;;5007837;28;20497;-70
2022/10/09 06:11:30;;;;;;;2.20;1.50;;;8.30;73.50;;;;;;5001630;28;20105;-70
2022/10/09 06:14:00;;;;;;;1.83;1.30;;;8.40;73.60;;;;;;5006736;28;20105;-70
2022/10/09 06:16:31;;;;;;;2.78;1.52;;;8.30;73.50;;;;;;5007941;28;20042;-69
2022/10/09 06:18:57;;;;;;;2.10;1.35;;;8.40;73.70;;;;;;5012660;28;20018;-69
2022/10/09 06:21:25;;;;;;;1.20;1.10;;;8.40;73.80;;;;;;4994986;28;20030;-68
2022/10/09 06:23:52;;;;;;;3.28;1.25;;;8.40;73.80;;;;;;5011890;28;20045;-67
2022/10/09 06:26:19;;;;;;;4.55;2.22;;;8.40;73.70;;;;;;5010854;28;20030;-67
2022/10/09 06:28:45;;;;;;;3.13;1.67;;;8.40;73.70;;;;;;5007530;28;20025;-66
2022/10/09 06:31:21;;;;;;;3.17;1.60;;;8.40;74.00;;;;;;4994388;28;20421;-68
2022/10/09 06:33:48;;;;;;;1.88;1.40;;;8.50;74.20;;;;;;4994757;28;20088;-72
2022/10/09 06:36:16;;;;;;;5.03;1.80;;;8.50;74.30;;;;;;4975785;28;20065;-66
2022/10/09 06:38:42;;;;;;;3.17;1.40;;;8.50;74.80;;;;;;5007007;28;20093;-66
2022/10/09 06:41:11;;;;;;;2.25;1.75;;;8.50;74.20;;;;;;5010032;28;20116;-72
2022/10/09 06:43:37;;;;;;;2.72;1.65;;;8.60;74.40;;;;;;5011329;28;20021;-72
2022/10/09 06:46:06;;;;;;;1.58;1.48;;;8.60;74.30;;;;;;5013033;28;20354;-71
2022/10/09 06:48:33;;;;;;;2.47;1.60;;;8.70;74.30;;;;;;5012063;28;20022;-71
2022/10/09 06:51:10;;;;;;;2.00;1.40;;;8.70;74.40;;;;;;5006822;28;20033;-71
2022/10/09 06:53:42;;;;;;;3.13;1.95;;;8.80;74.30;;;;;;5014253;28;20116;-70
2022/10/09 06:56:09;;;;;;;1.20;1.10;;;8.80;74.30;;;;;;5013769;28;20038;-71
2022/10/09 06:58:35;;;;;;;2.42;1.60;;;8.90;74.40;;;;;;5016015;28;20034;-70
2022/10/09 07:01:11;;;;;;;1.85;1.58;;;8.90;74.50;;;;;;5004342;28;20068;-70
2022/10/09 07:03:39;;;;;;;5.60;2.10;;;9.00;74.60;;;;;;5005951;28;20132;-70
2022/10/09 07:06:12;;;;;;;16.15;2.67;;;9.10;74.60;;;;;;5027873;28;20017;-71
2022/10/09 07:08:39;;;;;;;6.93;2.17;;;9.20;74.50;;;;;;5027549;28;20022;-71
2022/10/09 07:11:13;;;;;;;8.02;2.40;;;9.20;74.60;;;;;;5016164;28;20029;-70
2022/10/09 07:13:41;;;;;;;4.03;2.05;;;9.30;74.60;;;;;;4994547;28;20051;-70
2022/10/09 07:16:07;;;;;;;4.03;1.83;;;9.40;74.80;;;;;;5014389;28;20374;-72
2022/10/09 07:18:34;;;;;;;4.13;1.90;;;9.50;74.80;;;;;;5009639;28;20073;-66
2022/10/09 07:21:04;;;;;;;3.88;2.45;;;9.60;74.90;;;;;;5008904;28;20397;-71
2022/10/09 07:23:31;;;;;;;2.40;1.63;;;9.70;75.00;;;;;;4991616;28;20095;-74
2022/10/09 07:25:57;;;;;;;5.18;1.90;;;9.80;74.80;;;;;;4990074;28;20066;-74
2022/10/09 07:28:25;;;;;;;1.75;1.50;;;9.90;74.80;;;;;;5009998;28;20022;-70
2022/10/09 07:30:50;;;;;;;2.20;1.77;;;10.00;75.00;;;;;;5014227;28;20026;-70
2022/10/09 07:33:16;;;;;;;4.20;1.83;;;10.00;75.00;;;;;;5012954;28;20034;-69
2022/10/09 07:35:41;;;;;;;1.08;0.98;;;10.10;75.10;;;;;;5013142;28;20108;-70
2022/10/09 07:38:07;;;;;;;2.47;1.77;;;10.20;75.00;;;;;;4996142;28;20038;-70
2022/10/09 07:40:36;;;;;;;9.43;1.90;;;10.30;74.90;;;;;;5004078;28;20045;-70
2022/10/09 07:43:01;;;;;;;2.67;2.30;;;10.30;75.10;;;;;;4977425;28;20037;-70
2022/10/09 07:45:27;;;;;;;2.20;1.70;;;10.40;75.20;;;;;;5023530;28;20400;-69
2022/10/09 07:47:53;;;;;;;2.83;2.08;;;10.40;75.30;;;;;;4994074;28;20052;-70
2022/10/09 07:50:18;;;;;;;2.90;1.75;;;10.50;75.30;;;;;;5012729;28;20367;-69
2022/10/09 07:52:44;;;;;;;4.95;2.13;;;10.50;75.40;;;;;;4999647;28;20026;-69
2022/10/09 07:55:09;;;;;;;3.30;1.92;;;10.60;75.40;;;;;;5007983;28;20404;-70
2022/10/09 07:57:35;;;;;;;3.83;2.03;;;10.70;75.50;;;;;;5013371;28;20029;-69
2022/10/09 08:00:01;;;;;;;2.72;1.77;;;10.70;75.40;;;;;;4990335;28;20501;-69
2022/10/09 08:02:26;;;;;;;3.65;1.95;;;10.80;75.20;;;;;;4990796;28;20038;-69
2022/10/09 08:04:52;;;;;;;3.80;2.25;;;10.90;75.10;;;;;;4998009;28;20022;-70
2022/10/09 08:07:17;;;;;;;2.97;2.03;;;11.00;75.00;;;;;;5013603;28;20045;-70
2022/10/09 08:09:43;;;;;;;3.25;2.42;;;11.10;74.90;;;;;;5010205;28;20057;-70
2022/10/09 08:12:09;;;;;;;2.50;2.05;;;11.20;74.90;;;;;;4988345;28;20489;-70
2022/10/09 08:14:34;;;;;;;2.78;2.13;;;11.20;74.90;;;;;;4993555;28;20030;-70
2022/10/09 08:17:00;;;;;;;2.42;1.75;;;11.30;74.90;;;;;;5001645;28;20062;-70
2022/10/09 08:19:25;;;;;;;2.47;1.75;;;11.30;75.00;;;;;;5007856;28;20050;-70
2022/10/09 08:21:51;;;;;;;4.47;2.97;;;11.30;75.30;;;;;;5008988;28;20083;-70
2022/10/09 08:24:17;;;;;;;3.45;1.98;;;11.40;75.30;;;;;;5013592;28;20066;-70
2022/10/09 08:26:43;;;;;;;2.78;1.90;;;11.50;75.10;;;;;;5011742;28;20018;-70
2022/10/09 08:29:12;;;;;;;3.28;2.00;;;11.50;75.80;;;;;;4995090;28;20064;-70
2022/10/09 08:31:38;;;;;;;2.95;2.38;;;11.60;75.10;;;;;;5008450;28;20026;-70
2022/10/09 08:34:04;;;;;;;3.13;2.22;;;11.60;75.10;;;;;;5012370;28;20061;-69
2022/10/09 08:36:30;;;;;;;2.33;1.75;;;11.70;75.00;;;;;;5014751;28;20455;-69
2022/10/09 08:38:55;;;;;;;4.55;1.75;;;11.80;74.80;;;;;;5012344;28;20028;-69
2022/10/09 08:41:45;;;;;;;5.72;2.53;;;11.90;74.70;;;;;;5011743;28;20026;-70
2022/10/09 08:44:17;;;;;;;2.40;1.85;;;12.00;74.30;;;;;;5024347;28;20429;-71
2022/10/09 08:46:46;;;;;;;2.92;2.00;;;12.10;74.40;;;;;;5006674;28;20029;-71
2022/10/09 08:49:37;;;;;;;5.90;2.08;;;12.20;74.40;;;;;;5009590;28;20473;-71
2022/10/09 08:52:23;;;;;;;6.05;2.33;;;12.30;74.20;;;;;;5009353;28;20091;-71
2022/10/09 08:54:50;;;;;;;6.65;1.92;;;12.50;74.20;;;;;;5000850;28;20068;-71
2022/10/09 08:57:16;;;;;;;8.38;2.63;;;12.60;73.90;;;;;;4992680;28;20037;-71
2022/10/09 08:59:43;;;;;;;3.33;2.30;;;12.80;73.80;;;;;;5012347;28;20037;-71
2022/10/09 09:02:33;;;;;;;4.30;2.50;;;12.90;73.50;;;;;;5012610;28;20393;-71
2022/10/09 09:05:23;;;;;;;7.43;2.15;;;13.10;73.10;;;;;;5000768;28;20513;-71
2022/10/09 09:08:02;;;;;;;7.72;2.20;;;13.30;72.90;;;;;;5012381;28;20072;-71
2022/10/09 09:10:42;;;;;;;3.95;1.60;;;13.50;72.70;;;;;;4994354;28;20149;-71
2022/10/09 09:13:43;;;;;;;2.45;1.98;;;13.60;72.40;;;;;;4994482;28;20036;-72
2022/10/09 09:16:38;;;;;;;4.43;1.90;;;13.80;72.30;;;;;;5011099;28;20037;-71
2022/10/09 09:19:25;;;;;;;3.88;2.25;;;14.00;72.10;;;;;;5012603;28;20042;-71
2022/10/09 09:21:52;;;;;;;5.88;1.85;;;14.10;71.80;;;;;;5013053;28;20420;-71
2022/10/09 09:24:29;;;;;;;3.13;1.98;;;14.20;71.40;;;;;;5012846;28;20385;-71
2022/10/09 09:27:00;;;;;;;3.88;1.77;;;14.40;71.30;;;;;;5012755;28;20026;-71
2022/10/09 09:29:29;;;;;;;2.35;1.83;;;14.60;71.10;;;;;;5004952;28;20492;-71
2022/10/09 09:32:00;;;;;;;5.40;1.38;;;14.70;70.60;;;;;;5013061;28;20033;-71
2022/10/09 09:34:40;;;;;;;3.63;1.85;;;14.80;70.50;;;;;;5019437;28;20030;-71
2022/10/09 09:37:10;;;;;;;1.75;1.50;;;15.00;70.00;;;;;;5012120;28;20029;-72
2022/10/09 09:39:36;;;;;;;5.43;1.50;;;15.10;69.30;;;;;;5022303;28;20044;-71
2022/10/09 09:42:17;;;;;;;5.53;1.52;;;15.20;68.60;;;;;;5007263;28;20018;-72
2022/10/09 09:45:09;;;;;;;3.33;1.95;;;15.30;68.30;;;;;;5006464;28;20034;-71
2022/10/09 09:47:40;;;;;;;2.70;1.00;;;15.50;68.10;;;;;;4995920;28;20513;-71
2022/10/09 09:50:06;;;;;;;2.40;1.75;;;15.60;67.80;;;;;;5012387;28;20495;-70
2022/10/09 09:52:41;;;;;;;1.48;1.38;;;15.70;67.30;;;;;;4977814;28;20042;-70
2022/10/09 09:55:21;;;;;;;1.83;1.33;;;15.90;67.00;;;;;;5011861;28;20561;-70
2022/10/09 09:57:47;;;;;;;1.55;1.30;;;16.00;66.80;;;;;;5012727;28;20040;-71
2022/10/09 10:00:21;;;;;;;2.40;1.48;;;16.10;66.30;;;;;;4999078;28;20038;-70
2022/10/09 10:02:47;;;;;;;1.38;1.05;;;16.20;66.20;;;;;;4994366;28;20029;-70
2022/10/09 10:05:26;;;;;;;1.88;1.65;;;16.40;66.10;;;;;;5006867;28;20497;-70
2022/10/09 10:07:52;;;;;;;1.85;1.13;;;16.50;65.10;;;;;;5009375;28;20501;-71
2022/10/09 10:10:24;;;;;;;2.50;1.50;;;16.60;64.90;;;;;;5012316;28;20033;-70
2022/10/09 10:12:53;;;;;;;2.55;1.63;;;16.70;64.70;;;;;;5015008;28;20057;-71
2022/10/09 10:15:20;;;;;;;1.92;1.40;;;16.80;63.50;;;;;;4998915;28;20034;-70
2022/10/09 10:17:48;;;;;;;3.08;1.20;;;16.80;63.60;;;;;;5009743;28;20053;-71
2022/10/09 10:20:16;;;;;;;2.55;0.80;;;17.00;63.50;;;;;;5021909;28;20029;-71
2022/10/09 10:22:55;;;;;;;1.90;1.52;;;17.10;63.40;;;;;;4989720;28;20083;-70
2022/10/09 10:25:27;;;;;;;4.18;1.30;;;17.30;63.10;;;;;;5004627;28;21510;-70
2022/10/09 10:27:59;;;;;;;2.22;1.33;;;17.40;62.20;;;;;;5012864;28;20034;-71
2022/10/09 10:30:25;;;;;;;3.50;1.40;;;17.50;61.70;;;;;;4995527;28;20034;-70
2022/10/09 10:32:57;;;;;;;2.05;1.50;;;17.50;61.30;;;;;;5015881;28;20100;-68
2022/10/09 10:35:22;;;;;;;1.58;1.48;;;17.50;60.80;;;;;;5002369;28;20025;-69
2022/10/09 10:38:21;;;;;;;1.88;1.30;;;17.60;60.90;;;;;;5008517;28;20343;-69
2022/10/09 10:40:53;;;;;;;1.17;1.08;;;17.70;59.60;;;;;;5014758;28;20029;-69
2022/10/09 10:43:32;;;;;;;2.17;1.50;;;17.70;60.10;;;;;;5008995;28;20030;-69
2022/10/09 10:46:20;;;;;;;5.88;1.35;;;17.80;60.00;;;;;;5007015;28;20022;-67
2022/10/09 10:48:47;;;;;;;3.10;1.40;;;18.00;60.20;;;;;;5007281;28;20442;-68
2022/10/09 10:51:31;;;;;;;1.85;1.55;;;18.20;59.50;;;;;;5005495;28;20389;-67
2022/10/09 10:54:16;;;;;;;3.10;1.90;;;18.30;58.60;;;;;;5003769;28;20034;-70
2022/10/09 10:57:04;;;;;;;6.05;1.10;;;18.30;58.50;;;;;;4999573;28;20125;-70
2022/10/09 10:59:41;;;;;;;6.25;1.13;;;18.40;58.60;;;;;;5017701;28;20109;-70
2022/10/09 11:02:29;;;;;;;1.08;0.98;;;18.70;58.40;;;;;;5008725;28;20061;-70
2022/10/09 11:05:14;;;;;;;1.23;1.13;;;18.80;57.80;;;;;;5011159;28;20030;-68
2022/10/09 11:07:51;;;;;;;1.58;0.90;;;18.90;57.50;;;;;;4993541;28;20026;-68
2022/10/09 11:10:29;;;;;;;3.35;1.05;;;19.00;57.20;;;;;;5001022;28;20255;-68
2022/10/09 11:12:58;;;;;;;1.10;1.02;;;19.10;57.00;;;;;;5009356;28;20038;-68
2022/10/09 11:15:56;;;;;;;2.08;1.35;;;19.20;56.60;;;;;;5007963;28;20531;-67
2022/10/09 11:18:24;;;;;;;2.55;1.23;;;19.40;55.90;;;;;;5005068;28;20057;-68
2022/10/09 11:21:03;;;;;;;1.50;1.10;;;19.40;55.80;;;;;;5007544;28;20481;-68
2022/10/09 11:23:32;;;;;;;1.95;1.23;;;19.50;56.00;;;;;;5007572;28;20030;-67
2022/10/09 11:26:26;;;;;;;0.70;0.70;;;19.60;55.50;;;;;;4988833;28;20022;-68
2022/10/09 11:29:08;;;;;;;1.40;1.15;;;19.70;55.40;;;;;;5007874;28;20124;-68
2022/10/09 11:31:43;;;;;;;1.58;0.90;;;19.80;55.40;;;;;;5004596;28;20038;-68
2022/10/09 11:34:15;;;;;;;3.05;1.25;;;20.00;54.90;;;;;;5007346;28;20052;-68
2022/10/09 11:36:44;;;;;;;1.30;0.98;;;20.10;54.60;;;;;;5008424;28;20033;-67
2022/10/09 11:39:24;;;;;;;0.65;0.65;;;20.20;54.60;;;;;;5001296;28;20030;-70
2022/10/09 11:41:53;;;;;;;2.40;1.10;;;20.30;53.70;;;;;;5011792;28;20026;-69
2022/10/09 11:44:40;;;;;;;1.75;1.10;;;20.40;53.60;;;;;;5018673;28;20053;-70
2022/10/09 11:47:13;;;;;;;2.00;0.85;;;20.40;51.80;;;;;;5011591;28;20029;-69
2022/10/09 11:49:45;;;;;;;0.52;0.50;;;20.40;52.30;;;;;;5017153;28;20035;-69
2022/10/09 11:52:35;;;;;;;1.70;1.02;;;20.40;52.60;;;;;;5030526;28;20035;-70
2022/10/09 11:55:17;;;;;;;1.35;0.93;;;20.40;52.50;;;;;;4998983;28;20484;-69
2022/10/09 11:57:43;;;;;;;;;;;20.50;52.60;;;;;;5011762;28;20064;-70
2022/10/09 12:00:10;;;;;;;2.38;1.05;;;20.60;52.10;;;;;;5010690;28;19918;-70
2022/10/09 12:02:37;;;;;;;1.17;0.93;;;20.70;51.80;;;;;;5009510;28;20381;-70
2022/10/09 12:05:34;;;;;;;2.15;0.80;;;20.80;51.70;;;;;;5010477;28;20014;-71
2022/10/09 12:08:15;;;;;;;1.52;0.90;;;21.00;51.20;;;;;;5010118;28;20030;-70
2022/10/09 12:10:48;;;;;;;1.98;1.08;;;21.00;51.20;;;;;;5011537;28;20022;-70
2022/10/09 12:14:03;;;;;;;7.47;0.70;;;21.10;51.30;;;;;;5013592;28;20419;-71
2022/10/09 12:16:31;;;;;;;2.95;0.80;;;21.20;50.70;;;;;;4962461;28;20065;-70
2022/10/09 12:18:59;;;;;;;1.98;0.80;;;21.20;50.60;;;;;;4995274;28;20069;-71
2022/10/09 12:21:30;;;;;;;1.73;1.10;;;21.20;49.80;;;;;;5009938;28;20030;-70
2022/10/09 12:23:57;;;;;;;1.10;0.85;;;21.30;49.60;;;;;;5001603;28;20564;-69
2022/10/09 12:26:24;;;;;;;1.42;0.70;;;21.20;49.40;;;;;;4992747;28;20026;-69
2022/10/09 12:28:59;;;;;;;0.82;0.70;;;21.20;49.40;;;;;;5007847;28;20042;-70
2022/10/09 12:31:38;;;;;;;1.05;0.63;;;21.30;49.00;;;;;;4990212;28;20069;-69
2022/10/09 12:34:19;;;;;;;0.70;0.70;;;21.20;49.10;;;;;;5003774;28;20504;-70
2022/10/09 12:36:44;;;;;;;1.30;1.00;;;21.20;49.40;;;;;;5009035;28;20377;-69
2022/10/09 12:39:20;;;;;;;0.90;0.70;;;21.00;49.30;;;;;;5011391;28;20101;-70
2022/10/09 12:41:51;;;;;;;4.93;1.17;;;21.00;49.40;;;;;;4993139;28;20482;-70
2022/10/09 12:44:28;;;;;;;2.40;1.30;;;20.80;48.90;;;;;;5010549;28;20022;-69
2022/10/09 12:46:54;;;;;;;1.25;0.88;;;20.60;49.70;;;;;;5023172;28;20272;-69
2022/10/09 12:49:23;;;;;;;0.85;0.80;;;20.60;50.00;;;;;;5006706;28;20471;-70
2022/10/09 12:51:54;;;;;;;1.10;1.00;;;20.60;48.70;;;;;;5019888;28;20025;-70
2022/10/09 12:54:23;;;;;;;1.67;0.88;;;20.60;49.00;;;;;;5009646;28;20547;-70
2022/10/09 12:56:50;;;;;;;0.60;0.55;;;20.60;49.60;;;;;;5009397;28;20049;-70
2022/10/09 12:59:17;;;;;;;0.57;0.57;;;20.60;49.80;;;;;;5007595;28;20136;-69
2022/10/09 13:01:44;;;;;;;4.78;0.93;;;20.70;49.30;;;;;;5007219;28;20498;-69
2022/10/09 13:04:31;;;;;;;3.55;0.85;;;20.60;49.10;;;;;;5009779;28;20073;-69
2022/10/09 13:07:00;;;;;;;0.75;0.60;;;20.70;49.40;;;;;;4998291;28;20477;-68
2022/10/09 13:09:33;;;;;;;1.75;0.77;;;20.60;49.50;;;;;;5008539;28;20396;-68
2022/10/09 13:12:15;;;;;;;1.38;0.57;;;20.90;49.20;;;;;;5008345;28;20481;-68